sensor_id;sensor_type;location;lat;lon;timestamp;P1;durP1;ratioP1;P2;durP2;ratioP2
75167;SDS011;63748;48.088;11.476;2023-05-08T00:01:46;6.03;;;3.67;;
75167;SDS011;63748;48.088;11.476;2023-05-08T00:04:12;5.40;;;4.82;;
75167;SDS011;63748;48.088;11.476;2023-05-08T00:06:38;4.97;;;3.50;;
75167;SDS011;63748;48.088;11.476;2023-05-08T00:09:04;6.85;;;3.63;;
75167;SDS011;63748;48.088;11.476;2023-05-08T00:11:31;5.50;;;3.30;;
75167;SDS011;63748;48.088;11.476;2023-05-08T00:13:57;5.78;;;3.80;;
75167;SDS011;63748;48.088;11.476;2023-05-08T00:16:23;5.30;;;3.40;;
75167;SDS011;63748;48.088;11.476;2023-05-08T00:18:49;6.47;;;3.20;;
75167;SDS011;63748;48.088;11.476;2023-05-08T00:21:17;4.63;;;3.20;;
75167;SDS011;63748;48.088;11.476;2023-05-08T00:23:43;5.10;;;3.63;;
75167;SDS011;63748;48.088;11.476;2023-05-08T00:26:09;5.40;;;3.28;;
75167;SDS011;63748;48.088;11.476;2023-05-08T00:28:35;6.20;;;3.90;;
75167;SDS011;63748;48.088;11.476;2023-05-08T00:31:01;6.32;;;3.85;;
75167;SDS011;63748;48.088;11.476;2023-05-08T00:33:27;7.28;;;3.40;;
75167;SDS011;63748;48.088;11.476;2023-05-08T00:36:03;5.65;;;4.00;;
75167;SDS011;63748;48.088;11.476;2023-05-08T00:38:30;6.72;;;4.68;;
75167;SDS011;63748;48.088;11.476;2023-05-08T00:40:56;6.82;;;4.07;;
75167;SDS011;63748;48.088;11.476;2023-05-08T00:43:23;5.45;;;4.30;;
75167;SDS011;63748;48.088;11.476;2023-05-08T00:45:52;5.03;;;3.65;;
75167;SDS011;63748;48.088;11.476;2023-05-08T00:48:19;5.45;;;3.90;;
75167;SDS011;63748;48.088;11.476;2023-05-08T00:50:46;4.53;;;3.80;;
75167;SDS011;63748;48.088;11.476;2023-05-08T00:53:12;5.28;;;3.80;;
75167;SDS011;63748;48.088;11.476;2023-05-08T00:55:39;4.32;;;3.30;;
75167;SDS011;63748;48.088;11.476;2023-05-08T00:58:05;4.00;;;3.20;;
75167;SDS011;63748;48.088;11.476;2023-05-08T01:00:31;5.80;;;3.47;;
75167;SDS011;63748;48.088;11.476;2023-05-08T01:02:58;6.55;;;3.88;;
75167;SDS011;63748;48.088;11.476;2023-05-08T01:05:28;4.53;;;3.45;;
75167;SDS011;63748;48.088;11.476;2023-05-08T01:07:54;4.90;;;3.47;;
75167;SDS011;63748;48.088;11.476;2023-05-08T01:10:21;4.82;;;3.58;;
75167;SDS011;63748;48.088;11.476;2023-05-08T01:23:16;6.10;;;4.07;;
75167;SDS011;63748;48.088;11.476;2023-05-08T01:33:32;5.20;;;3.40;;
75167;SDS011;63748;48.088;11.476;2023-05-08T01:36:05;6.35;;;3.90;;
75167;SDS011;63748;48.088;11.476;2023-05-08T01:38:41;5.50;;;3.13;;
75167;SDS011;63748;48.088;11.476;2023-05-08T01:41:15;5.38;;;3.30;;
75167;SDS011;63748;48.088;11.476;2023-05-08T01:43:47;5.88;;;4.03;;
75167;SDS011;63748;48.088;11.476;2023-05-08T01:46:24;4.35;;;3.15;;
75167;SDS011;63748;48.088;11.476;2023-05-08T01:49:11;5.20;;;3.75;;
75167;SDS011;63748;48.088;11.476;2023-05-08T01:51:41;5.80;;;3.75;;
75167;SDS011;63748;48.088;11.476;2023-05-08T01:54:10;4.38;;;3.17;;
75167;SDS011;63748;48.088;11.476;2023-05-08T01:56:37;4.95;;;3.55;;
75167;SDS011;63748;48.088;11.476;2023-05-08T01:59:05;4.78;;;3.75;;
75167;SDS011;63748;48.088;11.476;2023-05-08T02:01:32;5.40;;;3.40;;
75167;SDS011;63748;48.088;11.476;2023-05-08T02:03:59;4.93;;;3.47;;
75167;SDS011;63748;48.088;11.476;2023-05-08T02:06:25;4.30;;;3.40;;
75167;SDS011;63748;48.088;11.476;2023-05-08T02:08:53;5.20;;;3.20;;
75167;SDS011;63748;48.088;11.476;2023-05-08T02:11:19;5.10;;;3.55;;
75167;SDS011;63748;48.088;11.476;2023-05-08T02:13:46;5.80;;;3.50;;
75167;SDS011;63748;48.088;11.476;2023-05-08T02:16:13;4.93;;;3.28;;
75167;SDS011;63748;48.088;11.476;2023-05-08T02:18:41;6.40;;;3.55;;
75167;SDS011;63748;48.088;11.476;2023-05-08T02:21:09;4.75;;;3.45;;
75167;SDS011;63748;48.088;11.476;2023-05-08T02:23:37;4.13;;;3.15;;
75167;SDS011;63748;48.088;11.476;2023-05-08T02:26:03;5.03;;;3.33;;
75167;SDS011;63748;48.088;11.476;2023-05-08T02:28:30;4.30;;;3.40;;
75167;SDS011;63748;48.088;11.476;2023-05-08T02:30:57;3.97;;;3.45;;
75167;SDS011;63748;48.088;11.476;2023-05-08T02:33:23;5.45;;;3.20;;
75167;SDS011;63748;48.088;11.476;2023-05-08T02:35:50;5.05;;;3.53;;
75167;SDS011;63748;48.088;11.476;2023-05-08T02:38:19;3.83;;;2.80;;
75167;SDS011;63748;48.088;11.476;2023-05-08T02:40:47;5.07;;;3.60;;
75167;SDS011;63748;48.088;11.476;2023-05-08T02:43:13;4.13;;;3.33;;
75167;SDS011;63748;48.088;11.476;2023-05-08T02:45:49;4.10;;;3.08;;
75167;SDS011;63748;48.088;11.476;2023-05-08T02:48:33;5.50;;;3.83;;
75167;SDS011;63748;48.088;11.476;2023-05-08T02:51:09;8.02;;;4.93;;
75167;SDS011;63748;48.088;11.476;2023-05-08T02:53:39;7.78;;;4.88;;
75167;SDS011;63748;48.088;11.476;2023-05-08T02:56:09;9.90;;;5.85;;
75167;SDS011;63748;48.088;11.476;2023-05-08T02:58:41;11.68;;;7.32;;
75167;SDS011;63748;48.088;11.476;2023-05-08T03:01:13;13.60;;;7.47;;
75167;SDS011;63748;48.088;11.476;2023-05-08T03:03:45;10.93;;;7.35;;
75167;SDS011;63748;48.088;11.476;2023-05-08T03:06:12;12.38;;;7.13;;
75167;SDS011;63748;48.088;11.476;2023-05-08T03:08:39;13.05;;;7.68;;
75167;SDS011;63748;48.088;11.476;2023-05-08T03:11:17;11.20;;;7.15;;
75167;SDS011;63748;48.088;11.476;2023-05-08T03:13:44;10.60;;;6.95;;
75167;SDS011;63748;48.088;11.476;2023-05-08T03:16:15;14.63;;;7.15;;
75167;SDS011;63748;48.088;11.476;2023-05-08T03:18:44;11.77;;;6.35;;
75167;SDS011;63748;48.088;11.476;2023-05-08T03:21:12;10.25;;;6.82;;
75167;SDS011;63748;48.088;11.476;2023-05-08T03:23:38;10.48;;;6.10;;
75167;SDS011;63748;48.088;11.476;2023-05-08T03:26:05;10.10;;;6.63;;
75167;SDS011;63748;48.088;11.476;2023-05-08T03:28:32;10.02;;;6.53;;
75167;SDS011;63748;48.088;11.476;2023-05-08T03:31:00;10.90;;;6.38;;
75167;SDS011;63748;48.088;11.476;2023-05-08T03:33:26;11.55;;;7.10;;
75167;SDS011;63748;48.088;11.476;2023-05-08T03:35:53;9.63;;;6.05;;
75167;SDS011;63748;48.088;11.476;2023-05-08T03:38:21;9.65;;;5.78;;
75167;SDS011;63748;48.088;11.476;2023-05-08T03:40:47;9.88;;;5.97;;
75167;SDS011;63748;48.088;11.476;2023-05-08T03:43:14;9.18;;;5.38;;
75167;SDS011;63748;48.088;11.476;2023-05-08T03:45:41;8.85;;;5.43;;
75167;SDS011;63748;48.088;11.476;2023-05-08T03:48:10;8.70;;;5.75;;
75167;SDS011;63748;48.088;11.476;2023-05-08T03:50:36;10.95;;;6.22;;
75167;SDS011;63748;48.088;11.476;2023-05-08T03:53:03;9.68;;;6.43;;
75167;SDS011;63748;48.088;11.476;2023-05-08T03:55:30;10.50;;;6.30;;
75167;SDS011;63748;48.088;11.476;2023-05-08T03:57:58;9.93;;;6.07;;
75167;SDS011;63748;48.088;11.476;2023-05-08T04:02:55;8.73;;;6.07;;
75167;SDS011;63748;48.088;11.476;2023-05-08T04:05:27;11.13;;;6.03;;
75167;SDS011;63748;48.088;11.476;2023-05-08T04:08:14;8.55;;;5.55;;
75167;SDS011;63748;48.088;11.476;2023-05-08T04:10:48;10.88;;;5.90;;
75167;SDS011;63748;48.088;11.476;2023-05-08T04:13:18;9.50;;;5.63;;
75167;SDS011;63748;48.088;11.476;2023-05-08T04:15:49;8.88;;;6.05;;
75167;SDS011;63748;48.088;11.476;2023-05-08T04:18:17;10.02;;;5.53;;
75167;SDS011;63748;48.088;11.476;2023-05-08T04:20:45;9.27;;;5.47;;
75167;SDS011;63748;48.088;11.476;2023-05-08T04:23:13;9.52;;;5.82;;
75167;SDS011;63748;48.088;11.476;2023-05-08T04:25:40;10.43;;;5.32;;
75167;SDS011;63748;48.088;11.476;2023-05-08T04:28:07;9.57;;;6.53;;
75167;SDS011;63748;48.088;11.476;2023-05-08T04:30:33;11.10;;;6.55;;
75167;SDS011;63748;48.088;11.476;2023-05-08T04:33:01;12.57;;;7.53;;
75167;SDS011;63748;48.088;11.476;2023-05-08T04:35:27;11.85;;;6.53;;
75167;SDS011;63748;48.088;11.476;2023-05-08T04:37:54;11.18;;;7.38;;
75167;SDS011;63748;48.088;11.476;2023-05-08T04:40:20;10.82;;;6.30;;
75167;SDS011;63748;48.088;11.476;2023-05-08T04:42:46;9.68;;;6.70;;
75167;SDS011;63748;48.088;11.476;2023-05-08T04:45:12;9.88;;;5.55;;
75167;SDS011;63748;48.088;11.476;2023-05-08T04:47:38;8.18;;;5.85;;
75167;SDS011;63748;48.088;11.476;2023-05-08T04:50:04;10.50;;;6.68;;
75167;SDS011;63748;48.088;11.476;2023-05-08T04:52:31;10.07;;;6.65;;
75167;SDS011;63748;48.088;11.476;2023-05-08T04:54:57;11.32;;;6.35;;
75167;SDS011;63748;48.088;11.476;2023-05-08T04:57:23;11.25;;;6.22;;
75167;SDS011;63748;48.088;11.476;2023-05-08T04:59:49;11.27;;;6.82;;
75167;SDS011;63748;48.088;11.476;2023-05-08T05:02:15;9.73;;;6.47;;
75167;SDS011;63748;48.088;11.476;2023-05-08T05:04:41;11.50;;;5.55;;
75167;SDS011;63748;48.088;11.476;2023-05-08T05:07:07;11.13;;;6.25;;
75167;SDS011;63748;48.088;11.476;2023-05-08T05:09:33;9.55;;;5.80;;
75167;SDS011;63748;48.088;11.476;2023-05-08T05:12:01;12.18;;;6.65;;
75167;SDS011;63748;48.088;11.476;2023-05-08T05:14:28;9.52;;;5.45;;
75167;SDS011;63748;48.088;11.476;2023-05-08T05:16:54;10.95;;;5.80;;
75167;SDS011;63748;48.088;11.476;2023-05-08T05:19:20;9.05;;;5.63;;
75167;SDS011;63748;48.088;11.476;2023-05-08T05:21:46;9.63;;;5.75;;
75167;SDS011;63748;48.088;11.476;2023-05-08T05:24:12;10.00;;;5.72;;
75167;SDS011;63748;48.088;11.476;2023-05-08T05:26:38;9.75;;;6.07;;
75167;SDS011;63748;48.088;11.476;2023-05-08T05:29:05;12.80;;;6.57;;
75167;SDS011;63748;48.088;11.476;2023-05-08T05:31:31;11.52;;;7.30;;
75167;SDS011;63748;48.088;11.476;2023-05-08T05:33:57;12.45;;;6.40;;
75167;SDS011;63748;48.088;11.476;2023-05-08T05:36:23;10.38;;;6.90;;
75167;SDS011;63748;48.088;11.476;2023-05-08T05:38:49;10.80;;;5.95;;
75167;SDS011;63748;48.088;11.476;2023-05-08T05:41:15;11.23;;;6.30;;
75167;SDS011;63748;48.088;11.476;2023-05-08T05:43:41;9.68;;;5.88;;
75167;SDS011;63748;48.088;11.476;2023-05-08T05:46:08;8.60;;;6.15;;
75167;SDS011;63748;48.088;11.476;2023-05-08T05:48:35;10.68;;;5.63;;
75167;SDS011;63748;48.088;11.476;2023-05-08T05:51:01;9.35;;;5.75;;
75167;SDS011;63748;48.088;11.476;2023-05-08T05:53:27;10.85;;;6.57;;
75167;SDS011;63748;48.088;11.476;2023-05-08T05:55:53;8.90;;;5.85;;
75167;SDS011;63748;48.088;11.476;2023-05-08T05:58:19;9.93;;;6.55;;
75167;SDS011;63748;48.088;11.476;2023-05-08T06:00:45;11.18;;;6.20;;
75167;SDS011;63748;48.088;11.476;2023-05-08T06:03:12;10.98;;;6.38;;
75167;SDS011;63748;48.088;11.476;2023-05-08T06:05:38;9.85;;;6.97;;
75167;SDS011;63748;48.088;11.476;2023-05-08T06:08:05;10.48;;;6.78;;
75167;SDS011;63748;48.088;11.476;2023-05-08T06:10:31;10.77;;;6.18;;
75167;SDS011;63748;48.088;11.476;2023-05-08T06:12:57;11.95;;;7.28;;
75167;SDS011;63748;48.088;11.476;2023-05-08T06:15:23;10.02;;;7.00;;
75167;SDS011;63748;48.088;11.476;2023-05-08T06:17:49;13.05;;;6.68;;
75167;SDS011;63748;48.088;11.476;2023-05-08T06:20:16;11.07;;;6.82;;
75167;SDS011;63748;48.088;11.476;2023-05-08T06:22:43;12.55;;;6.05;;
75167;SDS011;63748;48.088;11.476;2023-05-08T06:25:09;12.40;;;6.28;;
75167;SDS011;63748;48.088;11.476;2023-05-08T06:27:35;8.68;;;5.32;;
75167;SDS011;63748;48.088;11.476;2023-05-08T06:30:02;10.50;;;6.97;;
75167;SDS011;63748;48.088;11.476;2023-05-08T06:32:28;11.75;;;7.20;;
75167;SDS011;63748;48.088;11.476;2023-05-08T06:34:55;11.35;;;6.57;;
75167;SDS011;63748;48.088;11.476;2023-05-08T06:37:21;11.57;;;6.85;;
75167;SDS011;63748;48.088;11.476;2023-05-08T06:39:47;11.18;;;7.78;;
75167;SDS011;63748;48.088;11.476;2023-05-08T06:42:13;12.25;;;6.47;;
75167;SDS011;63748;48.088;11.476;2023-05-08T06:44:40;7.82;;;5.72;;
75167;SDS011;63748;48.088;11.476;2023-05-08T06:47:06;10.18;;;5.85;;
75167;SDS011;63748;48.088;11.476;2023-05-08T06:49:34;10.25;;;6.05;;
75167;SDS011;63748;48.088;11.476;2023-05-08T06:52:00;11.68;;;7.00;;
75167;SDS011;63748;48.088;11.476;2023-05-08T06:54:26;8.77;;;5.68;;
75167;SDS011;63748;48.088;11.476;2023-05-08T06:56:52;11.30;;;6.85;;
75167;SDS011;63748;48.088;11.476;2023-05-08T06:59:19;9.85;;;6.55;;
75167;SDS011;63748;48.088;11.476;2023-05-08T07:01:45;10.57;;;6.63;;
75167;SDS011;63748;48.088;11.476;2023-05-08T07:04:11;9.75;;;6.35;;
75167;SDS011;63748;48.088;11.476;2023-05-08T07:06:37;8.60;;;6.13;;
75167;SDS011;63748;48.088;11.476;2023-05-08T07:09:03;11.20;;;7.22;;
75167;SDS011;63748;48.088;11.476;2023-05-08T07:11:30;10.70;;;6.15;;
75167;SDS011;63748;48.088;11.476;2023-05-08T07:13:56;10.93;;;6.50;;
75167;SDS011;63748;48.088;11.476;2023-05-08T07:16:22;10.45;;;6.68;;
75167;SDS011;63748;48.088;11.476;2023-05-08T07:18:48;12.88;;;6.95;;
75167;SDS011;63748;48.088;11.476;2023-05-08T07:21:14;10.15;;;5.90;;
75167;SDS011;63748;48.088;11.476;2023-05-08T07:23:42;9.90;;;6.05;;
75167;SDS011;63748;48.088;11.476;2023-05-08T07:26:08;14.65;;;6.50;;
75167;SDS011;63748;48.088;11.476;2023-05-08T07:28:35;9.15;;;6.03;;
75167;SDS011;63748;48.088;11.476;2023-05-08T07:31:04;13.05;;;6.65;;
75167;SDS011;63748;48.088;11.476;2023-05-08T07:33:33;10.40;;;5.55;;
75167;SDS011;63748;48.088;11.476;2023-05-08T07:35:59;10.88;;;6.50;;
75167;SDS011;63748;48.088;11.476;2023-05-08T07:38:25;12.02;;;6.57;;
75167;SDS011;63748;48.088;11.476;2023-05-08T07:40:51;11.23;;;6.35;;
75167;SDS011;63748;48.088;11.476;2023-05-08T07:43:21;11.75;;;6.57;;
75167;SDS011;63748;48.088;11.476;2023-05-08T07:45:47;10.63;;;6.75;;
75167;SDS011;63748;48.088;11.476;2023-05-08T07:48:13;10.48;;;6.47;;
75167;SDS011;63748;48.088;11.476;2023-05-08T07:50:39;11.43;;;6.80;;
75167;SDS011;63748;48.088;11.476;2023-05-08T07:53:05;9.73;;;6.75;;
75167;SDS011;63748;48.088;11.476;2023-05-08T07:55:32;10.02;;;6.97;;
75167;SDS011;63748;48.088;11.476;2023-05-08T07:57:58;12.02;;;7.20;;
75167;SDS011;63748;48.088;11.476;2023-05-08T08:00:24;12.55;;;6.75;;
75167;SDS011;63748;48.088;11.476;2023-05-08T08:02:51;12.90;;;6.50;;
75167;SDS011;63748;48.088;11.476;2023-05-08T08:05:17;11.32;;;6.75;;
75167;SDS011;63748;48.088;11.476;2023-05-08T08:07:44;10.95;;;6.82;;
75167;SDS011;63748;48.088;11.476;2023-05-08T08:10:10;10.18;;;6.30;;
75167;SDS011;63748;48.088;11.476;2023-05-08T08:12:36;10.18;;;7.03;;
75167;SDS011;63748;48.088;11.476;2023-05-08T08:15:03;10.38;;;6.85;;
75167;SDS011;63748;48.088;11.476;2023-05-08T08:17:29;10.65;;;6.13;;
75167;SDS011;63748;48.088;11.476;2023-05-08T08:19:55;11.02;;;6.95;;
75167;SDS011;63748;48.088;11.476;2023-05-08T08:22:22;10.93;;;6.40;;
75167;SDS011;63748;48.088;11.476;2023-05-08T08:24:48;11.00;;;6.85;;
75167;SDS011;63748;48.088;11.476;2023-05-08T08:27:14;10.32;;;6.72;;
75167;SDS011;63748;48.088;11.476;2023-05-08T08:29:40;11.93;;;6.80;;
75167;SDS011;63748;48.088;11.476;2023-05-08T08:32:06;9.73;;;5.43;;
75167;SDS011;63748;48.088;11.476;2023-05-08T08:34:33;11.52;;;6.75;;
75167;SDS011;63748;48.088;11.476;2023-05-08T08:36:59;8.10;;;5.85;;
75167;SDS011;63748;48.088;11.476;2023-05-08T08:39:26;11.00;;;6.25;;
75167;SDS011;63748;48.088;11.476;2023-05-08T08:41:52;10.40;;;6.43;;
75167;SDS011;63748;48.088;11.476;2023-05-08T08:44:18;10.63;;;7.10;;
75167;SDS011;63748;48.088;11.476;2023-05-08T08:46:48;10.63;;;7.32;;
75167;SDS011;63748;48.088;11.476;2023-05-08T08:49:16;11.70;;;6.13;;
75167;SDS011;63748;48.088;11.476;2023-05-08T08:51:49;10.82;;;6.80;;
75167;SDS011;63748;48.088;11.476;2023-05-08T08:54:26;9.13;;;6.68;;
75167;SDS011;63748;48.088;11.476;2023-05-08T08:56:53;8.70;;;6.50;;
75167;SDS011;63748;48.088;11.476;2023-05-08T08:59:20;10.00;;;5.85;;
75167;SDS011;63748;48.088;11.476;2023-05-08T09:01:49;10.90;;;6.03;;
75167;SDS011;63748;48.088;11.476;2023-05-08T09:04:16;12.85;;;6.80;;
75167;SDS011;63748;48.088;11.476;2023-05-08T09:06:43;12.68;;;6.90;;
75167;SDS011;63748;48.088;11.476;2023-05-08T09:09:10;9.75;;;6.35;;
75167;SDS011;63748;48.088;11.476;2023-05-08T09:11:37;10.30;;;6.53;;
75167;SDS011;63748;48.088;11.476;2023-05-08T09:14:04;10.30;;;7.07;;
75167;SDS011;63748;48.088;11.476;2023-05-08T09:16:31;11.50;;;7.32;;
75167;SDS011;63748;48.088;11.476;2023-05-08T09:18:57;11.02;;;6.57;;
75167;SDS011;63748;48.088;11.476;2023-05-08T09:21:23;11.82;;;6.78;;
75167;SDS011;63748;48.088;11.476;2023-05-08T09:26:37;10.30;;;6.65;;
75167;SDS011;63748;48.088;11.476;2023-05-08T09:31:36;9.82;;;6.38;;
75167;SDS011;63748;48.088;11.476;2023-05-08T09:34:04;11.50;;;7.00;;
75167;SDS011;63748;48.088;11.476;2023-05-08T09:36:31;13.20;;;8.23;;
75167;SDS011;63748;48.088;11.476;2023-05-08T09:38:58;9.75;;;7.13;;
75167;SDS011;63748;48.088;11.476;2023-05-08T09:41:25;13.02;;;7.72;;
75167;SDS011;63748;48.088;11.476;2023-05-08T09:44:04;17.85;;;8.77;;
75167;SDS011;63748;48.088;11.476;2023-05-08T09:46:31;11.93;;;6.72;;
75167;SDS011;63748;48.088;11.476;2023-05-08T09:49:01;11.25;;;7.20;;
75167;SDS011;63748;48.088;11.476;2023-05-08T09:51:28;14.63;;;7.28;;
75167;SDS011;63748;48.088;11.476;2023-05-08T09:53:55;12.13;;;7.30;;
75167;SDS011;63748;48.088;11.476;2023-05-08T09:56:27;10.98;;;7.68;;
75167;SDS011;63748;48.088;11.476;2023-05-08T09:58:53;11.77;;;7.45;;
75167;SDS011;63748;48.088;11.476;2023-05-08T10:01:27;11.70;;;7.63;;
75167;SDS011;63748;48.088;11.476;2023-05-08T10:03:53;9.75;;;7.22;;
75167;SDS011;63748;48.088;11.476;2023-05-08T10:06:19;11.40;;;7.47;;
75167;SDS011;63748;48.088;11.476;2023-05-08T10:08:45;12.88;;;7.70;;
75167;SDS011;63748;48.088;11.476;2023-05-08T10:11:16;13.57;;;7.95;;
75167;SDS011;63748;48.088;11.476;2023-05-08T10:13:45;10.45;;;6.43;;
75167;SDS011;63748;48.088;11.476;2023-05-08T10:16:15;12.68;;;7.13;;
75167;SDS011;63748;48.088;11.476;2023-05-08T10:18:45;13.57;;;8.38;;
75167;SDS011;63748;48.088;11.476;2023-05-08T10:21:15;11.27;;;7.55;;
75167;SDS011;63748;48.088;11.476;2023-05-08T10:23:42;11.93;;;7.07;;
75167;SDS011;63748;48.088;11.476;2023-05-08T10:26:12;10.30;;;7.50;;
75167;SDS011;63748;48.088;11.476;2023-05-08T10:28:43;12.95;;;7.47;;
75167;SDS011;63748;48.088;11.476;2023-05-08T10:31:11;12.43;;;7.97;;
75167;SDS011;63748;48.088;11.476;2023-05-08T10:33:39;13.30;;;9.07;;
75167;SDS011;63748;48.088;11.476;2023-05-08T10:36:06;11.82;;;7.72;;
75167;SDS011;63748;48.088;11.476;2023-05-08T10:38:34;10.93;;;7.30;;
75167;SDS011;63748;48.088;11.476;2023-05-08T10:41:00;11.77;;;7.88;;
75167;SDS011;63748;48.088;11.476;2023-05-08T10:43:28;14.00;;;8.13;;
75167;SDS011;63748;48.088;11.476;2023-05-08T10:45:55;13.80;;;8.45;;
75167;SDS011;63748;48.088;11.476;2023-05-08T10:48:28;13.90;;;8.30;;
75167;SDS011;63748;48.088;11.476;2023-05-08T10:51:02;13.43;;;8.07;;
75167;SDS011;63748;48.088;11.476;2023-05-08T10:56:15;11.48;;;7.93;;
75167;SDS011;63748;48.088;11.476;2023-05-08T10:58:41;12.55;;;7.65;;
75167;SDS011;63748;48.088;11.476;2023-05-08T11:03:46;12.25;;;7.88;;
75167;SDS011;63748;48.088;11.476;2023-05-08T11:06:14;13.45;;;8.07;;
75167;SDS011;63748;48.088;11.476;2023-05-08T11:08:50;11.82;;;7.47;;
75167;SDS011;63748;48.088;11.476;2023-05-08T11:11:29;16.05;;;9.13;;
75167;SDS011;63748;48.088;11.476;2023-05-08T11:19:15;12.00;;;8.55;;
75167;SDS011;63748;48.088;11.476;2023-05-08T11:24:33;10.57;;;7.75;;
75167;SDS011;63748;48.088;11.476;2023-05-08T11:27:00;11.70;;;8.25;;
75167;SDS011;63748;48.088;11.476;2023-05-08T11:29:26;13.65;;;8.90;;
75167;SDS011;63748;48.088;11.476;2023-05-08T11:31:52;12.73;;;8.85;;
75167;SDS011;63748;48.088;11.476;2023-05-08T11:37:07;12.65;;;9.43;;
75167;SDS011;63748;48.088;11.476;2023-05-08T11:39:33;14.60;;;9.40;;
75167;SDS011;63748;48.088;11.476;2023-05-08T11:44:44;14.88;;;8.60;;
75167;SDS011;63748;48.088;11.476;2023-05-08T11:47:11;12.70;;;7.90;;
75167;SDS011;63748;48.088;11.476;2023-05-08T11:49:42;14.05;;;8.68;;
75167;SDS011;63748;48.088;11.476;2023-05-08T11:52:08;12.95;;;8.82;;
75167;SDS011;63748;48.088;11.476;2023-05-08T11:54:35;11.93;;;8.57;;
75167;SDS011;63748;48.088;11.476;2023-05-08T11:57:01;12.25;;;8.45;;
75167;SDS011;63748;48.088;11.476;2023-05-08T11:59:27;14.80;;;9.02;;
75167;SDS011;63748;48.088;11.476;2023-05-08T12:01:53;11.65;;;8.13;;
75167;SDS011;63748;48.088;11.476;2023-05-08T12:04:19;14.27;;;8.48;;
75167;SDS011;63748;48.088;11.476;2023-05-08T12:06:45;13.73;;;9.30;;
75167;SDS011;63748;48.088;11.476;2023-05-08T12:09:16;15.07;;;9.30;;
75167;SDS011;63748;48.088;11.476;2023-05-08T12:11:43;11.43;;;8.70;;
75167;SDS011;63748;48.088;11.476;2023-05-08T12:14:10;14.30;;;9.32;;
75167;SDS011;63748;48.088;11.476;2023-05-08T12:16:37;12.68;;;8.65;;
75167;SDS011;63748;48.088;11.476;2023-05-08T12:19:04;15.27;;;10.15;;
75167;SDS011;63748;48.088;11.476;2023-05-08T12:21:33;13.10;;;8.52;;
75167;SDS011;63748;48.088;11.476;2023-05-08T12:24:00;13.73;;;9.18;;
75167;SDS011;63748;48.088;11.476;2023-05-08T12:26:33;16.67;;;9.35;;
75167;SDS011;63748;48.088;11.476;2023-05-08T12:29:00;14.88;;;9.38;;
75167;SDS011;63748;48.088;11.476;2023-05-08T12:31:26;12.45;;;8.48;;
75167;SDS011;63748;48.088;11.476;2023-05-08T12:33:52;15.15;;;9.15;;
75167;SDS011;63748;48.088;11.476;2023-05-08T12:36:19;16.17;;;9.05;;
75167;SDS011;63748;48.088;11.476;2023-05-08T12:38:45;12.43;;;8.52;;
75167;SDS011;63748;48.088;11.476;2023-05-08T12:41:11;13.40;;;8.55;;
75167;SDS011;63748;48.088;11.476;2023-05-08T12:43:37;13.38;;;7.93;;
75167;SDS011;63748;48.088;11.476;2023-05-08T12:46:03;11.15;;;6.88;;
75167;SDS011;63748;48.088;11.476;2023-05-08T12:48:30;11.25;;;6.93;;
75167;SDS011;63748;48.088;11.476;2023-05-08T12:51:02;11.77;;;7.47;;
75167;SDS011;63748;48.088;11.476;2023-05-08T12:53:29;13.13;;;8.43;;
75167;SDS011;63748;48.088;11.476;2023-05-08T12:55:57;8.77;;;6.93;;
75167;SDS011;63748;48.088;11.476;2023-05-08T12:58:24;10.68;;;7.18;;
75167;SDS011;63748;48.088;11.476;2023-05-08T13:00:51;12.95;;;7.95;;
75167;SDS011;63748;48.088;11.476;2023-05-08T13:03:24;12.20;;;7.85;;
75167;SDS011;63748;48.088;11.476;2023-05-08T13:05:50;11.50;;;8.25;;
75167;SDS011;63748;48.088;11.476;2023-05-08T13:08:17;12.98;;;8.10;;
75167;SDS011;63748;48.088;11.476;2023-05-08T13:10:50;13.02;;;7.63;;
75167;SDS011;63748;48.088;11.476;2023-05-08T13:13:17;11.75;;;7.75;;
75167;SDS011;63748;48.088;11.476;2023-05-08T13:15:43;12.77;;;8.18;;
75167;SDS011;63748;48.088;11.476;2023-05-08T13:18:09;13.52;;;8.38;;
75167;SDS011;63748;48.088;11.476;2023-05-08T13:20:36;11.13;;;7.88;;
75167;SDS011;63748;48.088;11.476;2023-05-08T13:23:02;13.40;;;8.43;;
75167;SDS011;63748;48.088;11.476;2023-05-08T13:25:28;11.30;;;6.93;;
75167;SDS011;63748;48.088;11.476;2023-05-08T13:27:55;11.35;;;7.75;;
75167;SDS011;63748;48.088;11.476;2023-05-08T13:30:21;12.75;;;8.02;;
75167;SDS011;63748;48.088;11.476;2023-05-08T13:32:48;14.15;;;9.30;;
75167;SDS011;63748;48.088;11.476;2023-05-08T13:35:14;13.05;;;8.73;;
75167;SDS011;63748;48.088;11.476;2023-05-08T13:37:40;18.02;;;9.77;;
75167;SDS011;63748;48.088;11.476;2023-05-08T13:40:06;14.68;;;9.15;;
75167;SDS011;63748;48.088;11.476;2023-05-08T13:42:32;13.43;;;9.48;;
75167;SDS011;63748;48.088;11.476;2023-05-08T13:44:58;17.38;;;10.35;;
75167;SDS011;63748;48.088;11.476;2023-05-08T13:47:25;17.02;;;10.50;;
75167;SDS011;63748;48.088;11.476;2023-05-08T13:49:51;14.93;;;9.48;;
75167;SDS011;63748;48.088;11.476;2023-05-08T13:52:17;13.30;;;10.05;;
75167;SDS011;63748;48.088;11.476;2023-05-08T13:54:43;16.70;;;10.88;;
75167;SDS011;63748;48.088;11.476;2023-05-08T13:57:09;15.45;;;10.23;;
75167;SDS011;63748;48.088;11.476;2023-05-08T13:59:36;17.65;;;11.13;;
75167;SDS011;63748;48.088;11.476;2023-05-08T14:02:02;17.52;;;11.45;;
75167;SDS011;63748;48.088;11.476;2023-05-08T14:04:28;18.10;;;12.48;;
75167;SDS011;63748;48.088;11.476;2023-05-08T14:06:54;19.02;;;11.55;;
75167;SDS011;63748;48.088;11.476;2023-05-08T14:09:20;17.45;;;11.55;;
75167;SDS011;63748;48.088;11.476;2023-05-08T14:11:46;20.20;;;11.63;;
75167;SDS011;63748;48.088;11.476;2023-05-08T14:14:12;16.52;;;10.77;;
75167;SDS011;63748;48.088;11.476;2023-05-08T14:16:38;17.80;;;11.38;;
75167;SDS011;63748;48.088;11.476;2023-05-08T14:19:04;16.98;;;10.88;;
75167;SDS011;63748;48.088;11.476;2023-05-08T14:21:30;14.80;;;10.23;;
75167;SDS011;63748;48.088;11.476;2023-05-08T14:23:56;15.43;;;10.02;;
75167;SDS011;63748;48.088;11.476;2023-05-08T14:26:22;16.73;;;10.25;;
75167;SDS011;63748;48.088;11.476;2023-05-08T14:28:48;14.88;;;10.43;;
75167;SDS011;63748;48.088;11.476;2023-05-08T14:31:14;16.50;;;9.75;;
75167;SDS011;63748;48.088;11.476;2023-05-08T14:33:40;17.58;;;10.30;;
75167;SDS011;63748;48.088;11.476;2023-05-08T14:36:07;16.73;;;10.45;;
75167;SDS011;63748;48.088;11.476;2023-05-08T14:38:33;17.80;;;10.73;;
75167;SDS011;63748;48.088;11.476;2023-05-08T14:40:59;15.15;;;10.32;;
75167;SDS011;63748;48.088;11.476;2023-05-08T14:43:25;17.13;;;11.27;;
75167;SDS011;63748;48.088;11.476;2023-05-08T14:45:51;15.68;;;10.13;;
75167;SDS011;63748;48.088;11.476;2023-05-08T14:48:17;14.90;;;9.88;;
75167;SDS011;63748;48.088;11.476;2023-05-08T14:50:43;14.75;;;9.52;;
75167;SDS011;63748;48.088;11.476;2023-05-08T14:53:09;14.27;;;9.25;;
75167;SDS011;63748;48.088;11.476;2023-05-08T14:55:35;14.93;;;9.07;;
75167;SDS011;63748;48.088;11.476;2023-05-08T14:58:01;14.10;;;8.68;;
75167;SDS011;63748;48.088;11.476;2023-05-08T15:00:28;15.82;;;9.60;;
75167;SDS011;63748;48.088;11.476;2023-05-08T15:02:54;13.30;;;7.78;;
75167;SDS011;63748;48.088;11.476;2023-05-08T15:05:20;14.05;;;7.80;;
75167;SDS011;63748;48.088;11.476;2023-05-08T15:07:46;13.15;;;8.30;;
75167;SDS011;63748;48.088;11.476;2023-05-08T15:10:14;13.82;;;8.95;;
75167;SDS011;63748;48.088;11.476;2023-05-08T15:12:40;13.95;;;8.25;;